sensor_id;sensor_type;location;lat;lon;timestamp;P1;durP1;ratioP1;P2;durP2;ratioP2
75898;SDS011;64576;50.460;4.866;2023-04-24T00:01:46;25.30;;;9.93;;
75898;SDS011;64576;50.460;4.866;2023-04-24T00:04:12;27.02;;;14.05;;
75898;SDS011;64576;50.460;4.866;2023-04-24T00:06:41;27.00;;;14.07;;
75898;SDS011;64576;50.460;4.866;2023-04-24T00:09:07;21.92;;;11.50;;
75898;SDS011;64576;50.460;4.866;2023-04-24T00:11:35;29.08;;;12.93;;
75898;SDS011;64576;50.460;4.866;2023-04-24T00:14:00;28.33;;;14.23;;
75898;SDS011;64576;50.460;4.866;2023-04-24T00:16:26;27.58;;;12.50;;
75898;SDS011;64576;50.460;4.866;2023-04-24T00:18:51;27.23;;;15.85;;
75898;SDS011;64576;50.460;4.866;2023-04-24T00:21:21;25.88;;;12.57;;
75898;SDS011;64576;50.460;4.866;2023-04-24T00:23:46;31.77;;;12.30;;
75898;SDS011;64576;50.460;4.866;2023-04-24T00:26:12;22.42;;;11.45;;
75898;SDS011;64576;50.460;4.866;2023-04-24T00:28:38;24.08;;;11.45;;
75898;SDS011;64576;50.460;4.866;2023-04-24T00:31:04;25.25;;;12.70;;
75898;SDS011;64576;50.460;4.866;2023-04-24T00:33:29;30.75;;;16.20;;
75898;SDS011;64576;50.460;4.866;2023-04-24T00:35:55;33.88;;;14.85;;
75898;SDS011;64576;50.460;4.866;2023-04-24T00:38:20;21.08;;;11.98;;
75898;SDS011;64576;50.460;4.866;2023-04-24T00:40:47;29.88;;;12.70;;
75898;SDS011;64576;50.460;4.866;2023-04-24T00:43:13;24.42;;;13.48;;
75898;SDS011;64576;50.460;4.866;2023-04-24T00:45:38;29.38;;;13.02;;
75898;SDS011;64576;50.460;4.866;2023-04-24T00:48:04;22.70;;;12.02;;
75898;SDS011;64576;50.460;4.866;2023-04-24T00:50:29;22.20;;;11.25;;
75898;SDS011;64576;50.460;4.866;2023-04-24T00:52:55;31.58;;;15.80;;
75898;SDS011;64576;50.460;4.866;2023-04-24T00:55:21;34.92;;;16.73;;
75898;SDS011;64576;50.460;4.866;2023-04-24T00:57:46;31.02;;;16.00;;
75898;SDS011;64576;50.460;4.866;2023-04-24T01:00:12;20.77;;;12.65;;
75898;SDS011;64576;50.460;4.866;2023-04-24T01:02:39;34.38;;;16.45;;
75898;SDS011;64576;50.460;4.866;2023-04-24T01:05:11;34.80;;;16.00;;
75898;SDS011;64576;50.460;4.866;2023-04-24T01:07:38;23.73;;;10.75;;
75898;SDS011;64576;50.460;4.866;2023-04-24T01:10:06;32.75;;;13.05;;
75898;SDS011;64576;50.460;4.866;2023-04-24T01:12:32;36.22;;;17.95;;
75898;SDS011;64576;50.460;4.866;2023-04-24T01:14:58;30.05;;;14.52;;
75898;SDS011;64576;50.460;4.866;2023-04-24T01:17:23;28.98;;;14.70;;
75898;SDS011;64576;50.460;4.866;2023-04-24T01:19:50;23.98;;;11.45;;
75898;SDS011;64576;50.460;4.866;2023-04-24T01:22:18;29.38;;;15.88;;
75898;SDS011;64576;50.460;4.866;2023-04-24T01:24:45;23.73;;;12.07;;
75898;SDS011;64576;50.460;4.866;2023-04-24T01:27:11;30.08;;;15.13;;
75898;SDS011;64576;50.460;4.866;2023-04-24T01:29:37;30.10;;;14.20;;
75898;SDS011;64576;50.460;4.866;2023-04-24T01:32:03;25.65;;;12.95;;
75898;SDS011;64576;50.460;4.866;2023-04-24T01:34:29;24.70;;;11.25;;
75898;SDS011;64576;50.460;4.866;2023-04-24T01:36:55;37.40;;;13.77;;
75898;SDS011;64576;50.460;4.866;2023-04-24T01:39:21;33.53;;;18.27;;
75898;SDS011;64576;50.460;4.866;2023-04-24T01:41:48;25.45;;;11.40;;
75898;SDS011;64576;50.460;4.866;2023-04-24T01:44:15;33.75;;;15.75;;
75898;SDS011;64576;50.460;4.866;2023-04-24T01:46:41;31.15;;;14.82;;
75898;SDS011;64576;50.460;4.866;2023-04-24T01:49:06;26.15;;;12.65;;
75898;SDS011;64576;50.460;4.866;2023-04-24T01:51:32;29.83;;;12.60;;
75898;SDS011;64576;50.460;4.866;2023-04-24T01:53:57;30.08;;;14.80;;
75898;SDS011;64576;50.460;4.866;2023-04-24T01:56:22;35.28;;;11.57;;
75898;SDS011;64576;50.460;4.866;2023-04-24T01:58:49;29.00;;;13.90;;
75898;SDS011;64576;50.460;4.866;2023-04-24T02:01:19;26.48;;;12.90;;
75898;SDS011;64576;50.460;4.866;2023-04-24T02:03:45;32.28;;;15.98;;
75898;SDS011;64576;50.460;4.866;2023-04-24T02:06:11;44.83;;;19.25;;
75898;SDS011;64576;50.460;4.866;2023-04-24T02:08:37;36.65;;;15.88;;
75898;SDS011;64576;50.460;4.866;2023-04-24T02:11:02;32.60;;;13.48;;
75898;SDS011;64576;50.460;4.866;2023-04-24T02:13:28;30.75;;;14.63;;
75898;SDS011;64576;50.460;4.866;2023-04-24T02:15:53;39.33;;;17.38;;
75898;SDS011;64576;50.460;4.866;2023-04-24T02:18:18;33.25;;;12.68;;
75898;SDS011;64576;50.460;4.866;2023-04-24T02:20:44;37.60;;;19.13;;
75898;SDS011;64576;50.460;4.866;2023-04-24T02:23:10;44.83;;;20.33;;
75898;SDS011;64576;50.460;4.866;2023-04-24T02:25:35;33.17;;;13.80;;
75898;SDS011;64576;50.460;4.866;2023-04-24T02:28:01;31.40;;;13.95;;
75898;SDS011;64576;50.460;4.866;2023-04-24T02:30:27;36.60;;;16.67;;
75898;SDS011;64576;50.460;4.866;2023-04-24T02:32:52;33.35;;;18.77;;
75898;SDS011;64576;50.460;4.866;2023-04-24T02:35:18;37.25;;;16.98;;
75898;SDS011;64576;50.460;4.866;2023-04-24T02:37:44;44.40;;;17.48;;
75898;SDS011;64576;50.460;4.866;2023-04-24T02:40:09;42.53;;;16.45;;
75898;SDS011;64576;50.460;4.866;2023-04-24T02:42:35;33.60;;;14.10;;
75898;SDS011;64576;50.460;4.866;2023-04-24T02:45:00;32.78;;;16.52;;
75898;SDS011;64576;50.460;4.866;2023-04-24T02:47:25;39.05;;;15.57;;
75898;SDS011;64576;50.460;4.866;2023-04-24T02:49:51;31.60;;;15.35;;
75898;SDS011;64576;50.460;4.866;2023-04-24T02:52:16;30.40;;;13.10;;
75898;SDS011;64576;50.460;4.866;2023-04-24T02:54:42;34.45;;;15.27;;
75898;SDS011;64576;50.460;4.866;2023-04-24T02:57:08;30.15;;;11.32;;
75898;SDS011;64576;50.460;4.866;2023-04-24T02:59:33;35.03;;;15.63;;
75898;SDS011;64576;50.460;4.866;2023-04-24T03:01:58;23.30;;;12.43;;
75898;SDS011;64576;50.460;4.866;2023-04-24T03:04:24;29.58;;;17.08;;
75898;SDS011;64576;50.460;4.866;2023-04-24T03:06:50;31.88;;;15.30;;
75898;SDS011;64576;50.460;4.866;2023-04-24T03:09:17;29.80;;;14.43;;
75898;SDS011;64576;50.460;4.866;2023-04-24T03:11:44;35.95;;;15.85;;
75898;SDS011;64576;50.460;4.866;2023-04-24T03:14:10;36.50;;;16.45;;
75898;SDS011;64576;50.460;4.866;2023-04-24T03:16:35;41.47;;;17.10;;
75898;SDS011;64576;50.460;4.866;2023-04-24T03:19:00;36.47;;;18.27;;
75898;SDS011;64576;50.460;4.866;2023-04-24T03:21:26;28.92;;;13.95;;
75898;SDS011;64576;50.460;4.866;2023-04-24T03:23:51;35.58;;;17.83;;
75898;SDS011;64576;50.460;4.866;2023-04-24T03:26:17;31.70;;;13.63;;
75898;SDS011;64576;50.460;4.866;2023-04-24T03:28:42;33.65;;;13.18;;
75898;SDS011;64576;50.460;4.866;2023-04-24T03:31:08;32.75;;;14.00;;
75898;SDS011;64576;50.460;4.866;2023-04-24T03:33:33;35.55;;;15.80;;
75898;SDS011;64576;50.460;4.866;2023-04-24T03:35:58;35.42;;;15.68;;
75898;SDS011;64576;50.460;4.866;2023-04-24T03:38:24;30.45;;;13.88;;
75898;SDS011;64576;50.460;4.866;2023-04-24T03:40:49;35.03;;;16.50;;
75898;SDS011;64576;50.460;4.866;2023-04-24T03:43:14;28.73;;;11.32;;
75898;SDS011;64576;50.460;4.866;2023-04-24T03:45:40;29.67;;;14.65;;
75898;SDS011;64576;50.460;4.866;2023-04-24T03:48:05;32.15;;;15.25;;
75898;SDS011;64576;50.460;4.866;2023-04-24T03:50:31;41.45;;;14.10;;
75898;SDS011;64576;50.460;4.866;2023-04-24T03:52:56;26.73;;;14.15;;
75898;SDS011;64576;50.460;4.866;2023-04-24T03:55:21;36.63;;;16.17;;
75898;SDS011;64576;50.460;4.866;2023-04-24T03:57:47;30.92;;;15.55;;
75898;SDS011;64576;50.460;4.866;2023-04-24T04:00:12;35.58;;;20.00;;
75898;SDS011;64576;50.460;4.866;2023-04-24T04:02:39;31.35;;;13.43;;
75898;SDS011;64576;50.460;4.866;2023-04-24T04:05:04;27.70;;;12.77;;
75898;SDS011;64576;50.460;4.866;2023-04-24T04:07:30;38.05;;;19.73;;
75898;SDS011;64576;50.460;4.866;2023-04-24T04:09:55;28.77;;;13.10;;
75898;SDS011;64576;50.460;4.866;2023-04-24T04:12:20;36.65;;;15.35;;
75898;SDS011;64576;50.460;4.866;2023-04-24T04:14:46;36.00;;;17.25;;
75898;SDS011;64576;50.460;4.866;2023-04-24T04:17:11;28.92;;;13.52;;
75898;SDS011;64576;50.460;4.866;2023-04-24T04:19:37;30.63;;;15.20;;
75898;SDS011;64576;50.460;4.866;2023-04-24T04:22:02;34.95;;;16.45;;
75898;SDS011;64576;50.460;4.866;2023-04-24T04:24:28;28.60;;;13.63;;
75898;SDS011;64576;50.460;4.866;2023-04-24T04:26:53;28.95;;;13.63;;
75898;SDS011;64576;50.460;4.866;2023-04-24T04:29:21;29.35;;;13.55;;
75898;SDS011;64576;50.460;4.866;2023-04-24T04:31:47;28.45;;;15.95;;
75898;SDS011;64576;50.460;4.866;2023-04-24T04:34:13;25.25;;;12.77;;
75898;SDS011;64576;50.460;4.866;2023-04-24T04:36:39;25.45;;;12.63;;
75898;SDS011;64576;50.460;4.866;2023-04-24T04:39:06;28.67;;;14.90;;
75898;SDS011;64576;50.460;4.866;2023-04-24T04:41:31;26.35;;;11.90;;
75898;SDS011;64576;50.460;4.866;2023-04-24T04:44:00;30.13;;;12.13;;
75898;SDS011;64576;50.460;4.866;2023-04-24T04:46:25;26.20;;;11.98;;
75898;SDS011;64576;50.460;4.866;2023-04-24T04:48:51;34.33;;;15.65;;
75898;SDS011;64576;50.460;4.866;2023-04-24T04:51:17;30.38;;;12.25;;
75898;SDS011;64576;50.460;4.866;2023-04-24T04:53:43;38.05;;;13.38;;
75898;SDS011;64576;50.460;4.866;2023-04-24T04:56:08;32.80;;;11.85;;
75898;SDS011;64576;50.460;4.866;2023-04-24T04:58:33;32.65;;;11.98;;
75898;SDS011;64576;50.460;4.866;2023-04-24T05:00:59;30.13;;;11.40;;
75898;SDS011;64576;50.460;4.866;2023-04-24T05:03:24;27.02;;;12.32;;
75898;SDS011;64576;50.460;4.866;2023-04-24T05:05:50;24.42;;;11.10;;
75898;SDS011;64576;50.460;4.866;2023-04-24T05:08:15;19.30;;;10.10;;
75898;SDS011;64576;50.460;4.866;2023-04-24T05:10:41;27.10;;;11.07;;
75898;SDS011;64576;50.460;4.866;2023-04-24T05:13:06;25.10;;;11.23;;
75898;SDS011;64576;50.460;4.866;2023-04-24T05:15:32;28.15;;;12.07;;
75898;SDS011;64576;50.460;4.866;2023-04-24T05:17:57;25.05;;;12.35;;
75898;SDS011;64576;50.460;4.866;2023-04-24T05:20:23;31.75;;;15.32;;
75898;SDS011;64576;50.460;4.866;2023-04-24T05:22:48;27.67;;;13.30;;
75898;SDS011;64576;50.460;4.866;2023-04-24T05:25:13;28.52;;;12.93;;
75898;SDS011;64576;50.460;4.866;2023-04-24T05:27:39;29.00;;;13.85;;
75898;SDS011;64576;50.460;4.866;2023-04-24T05:30:05;33.30;;;13.35;;
75898;SDS011;64576;50.460;4.866;2023-04-24T05:32:31;30.40;;;14.15;;
75898;SDS011;64576;50.460;4.866;2023-04-24T05:34:57;35.75;;;14.02;;
75898;SDS011;64576;50.460;4.866;2023-04-24T05:37:22;21.50;;;10.02;;
75898;SDS011;64576;50.460;4.866;2023-04-24T05:39:47;31.55;;;15.27;;
75898;SDS011;64576;50.460;4.866;2023-04-24T05:42:13;26.05;;;14.13;;
75898;SDS011;64576;50.460;4.866;2023-04-24T05:44:38;31.13;;;14.23;;
75898;SDS011;64576;50.460;4.866;2023-04-24T05:47:03;27.80;;;12.93;;
75898;SDS011;64576;50.460;4.866;2023-04-24T05:49:29;36.63;;;15.98;;
75898;SDS011;64576;50.460;4.866;2023-04-24T05:51:54;37.45;;;18.40;;
75898;SDS011;64576;50.460;4.866;2023-04-24T05:54:20;30.27;;;13.18;;
75898;SDS011;64576;50.460;4.866;2023-04-24T05:56:45;31.13;;;12.63;;
75898;SDS011;64576;50.460;4.866;2023-04-24T05:59:11;29.80;;;13.63;;
75898;SDS011;64576;50.460;4.866;2023-04-24T06:01:36;27.33;;;12.13;;
75898;SDS011;64576;50.460;4.866;2023-04-24T06:04:02;27.65;;;13.90;;
75898;SDS011;64576;50.460;4.866;2023-04-24T06:06:28;33.63;;;14.35;;
75898;SDS011;64576;50.460;4.866;2023-04-24T06:08:54;31.40;;;13.98;;
75898;SDS011;64576;50.460;4.866;2023-04-24T06:11:19;35.05;;;18.13;;
75898;SDS011;64576;50.460;4.866;2023-04-24T06:13:45;33.65;;;13.07;;
75898;SDS011;64576;50.460;4.866;2023-04-24T06:16:10;37.40;;;14.65;;
75898;SDS011;64576;50.460;4.866;2023-04-24T06:18:36;36.03;;;17.13;;
75898;SDS011;64576;50.460;4.866;2023-04-24T06:21:01;34.03;;;15.57;;
75898;SDS011;64576;50.460;4.866;2023-04-24T06:23:27;35.05;;;15.00;;
75898;SDS011;64576;50.460;4.866;2023-04-24T06:25:52;37.28;;;15.30;;
75898;SDS011;64576;50.460;4.866;2023-04-24T06:28:18;34.42;;;16.45;;
75898;SDS011;64576;50.460;4.866;2023-04-24T06:30:43;51.30;;;21.98;;
75898;SDS011;64576;50.460;4.866;2023-04-24T06:33:09;36.30;;;14.93;;
75898;SDS011;64576;50.460;4.866;2023-04-24T06:35:35;30.35;;;13.52;;
75898;SDS011;64576;50.460;4.866;2023-04-24T06:38:01;34.70;;;15.75;;
75898;SDS011;64576;50.460;4.866;2023-04-24T06:40:26;39.38;;;16.58;;
75898;SDS011;64576;50.460;4.866;2023-04-24T06:42:51;33.28;;;13.93;;
75898;SDS011;64576;50.460;4.866;2023-04-24T06:45:17;28.63;;;12.63;;
75898;SDS011;64576;50.460;4.866;2023-04-24T06:47:43;30.50;;;13.82;;
75898;SDS011;64576;50.460;4.866;2023-04-24T06:50:08;30.02;;;13.52;;
75898;SDS011;64576;50.460;4.866;2023-04-24T06:52:34;36.97;;;17.15;;
75898;SDS011;64576;50.460;4.866;2023-04-24T06:55:03;33.75;;;14.27;;
75898;SDS011;64576;50.460;4.866;2023-04-24T06:57:29;28.77;;;14.57;;
75898;SDS011;64576;50.460;4.866;2023-04-24T06:59:56;32.80;;;14.90;;
75898;SDS011;64576;50.460;4.866;2023-04-24T07:02:21;38.97;;;17.27;;
75898;SDS011;64576;50.460;4.866;2023-04-24T07:04:47;41.85;;;18.13;;
75898;SDS011;64576;50.460;4.866;2023-04-24T07:07:12;47.33;;;19.67;;
75898;SDS011;64576;50.460;4.866;2023-04-24T07:09:39;38.45;;;17.60;;
75898;SDS011;64576;50.460;4.866;2023-04-24T07:12:07;48.80;;;19.92;;
75898;SDS011;64576;50.460;4.866;2023-04-24T07:14:33;51.78;;;22.85;;
75898;SDS011;64576;50.460;4.866;2023-04-24T07:16:58;45.92;;;19.15;;
75898;SDS011;64576;50.460;4.866;2023-04-24T07:19:24;47.50;;;20.83;;
75898;SDS011;64576;50.460;4.866;2023-04-24T07:21:52;53.45;;;23.38;;
75898;SDS011;64576;50.460;4.866;2023-04-24T07:24:19;54.33;;;24.83;;
75898;SDS011;64576;50.460;4.866;2023-04-24T07:26:45;60.53;;;22.73;;
75898;SDS011;64576;50.460;4.866;2023-04-24T07:29:11;46.90;;;22.67;;
75898;SDS011;64576;50.460;4.866;2023-04-24T07:31:38;49.28;;;22.13;;
75898;SDS011;64576;50.460;4.866;2023-04-24T07:34:03;54.70;;;24.88;;
75898;SDS011;64576;50.460;4.866;2023-04-24T07:36:29;47.35;;;20.65;;
75898;SDS011;64576;50.460;4.866;2023-04-24T07:38:55;53.33;;;22.65;;
75898;SDS011;64576;50.460;4.866;2023-04-24T07:41:21;46.20;;;21.85;;
75898;SDS011;64576;50.460;4.866;2023-04-24T07:43:47;47.20;;;20.98;;
75898;SDS011;64576;50.460;4.866;2023-04-24T07:46:13;42.28;;;18.70;;
75898;SDS011;64576;50.460;4.866;2023-04-24T07:48:38;37.75;;;17.38;;
75898;SDS011;64576;50.460;4.866;2023-04-24T07:51:03;42.05;;;18.45;;
75898;SDS011;64576;50.460;4.866;2023-04-24T07:53:29;50.10;;;23.80;;
75898;SDS011;64576;50.460;4.866;2023-04-24T07:55:55;40.30;;;19.05;;
75898;SDS011;64576;50.460;4.866;2023-04-24T07:58:21;53.33;;;22.25;;
75898;SDS011;64576;50.460;4.866;2023-04-24T08:00:46;55.97;;;21.98;;
75898;SDS011;64576;50.460;4.866;2023-04-24T08:03:12;47.35;;;22.48;;
75898;SDS011;64576;50.460;4.866;2023-04-24T08:05:37;35.40;;;17.65;;
75898;SDS011;64576;50.460;4.866;2023-04-24T08:08:03;43.83;;;19.30;;
75898;SDS011;64576;50.460;4.866;2023-04-24T08:10:28;44.85;;;16.98;;
75898;SDS011;64576;50.460;4.866;2023-04-24T08:12:54;39.10;;;22.38;;
75898;SDS011;64576;50.460;4.866;2023-04-24T08:15:20;41.42;;;20.58;;
75898;SDS011;64576;50.460;4.866;2023-04-24T08:17:46;40.03;;;18.80;;
75898;SDS011;64576;50.460;4.866;2023-04-24T08:20:11;35.38;;;17.27;;
75898;SDS011;64576;50.460;4.866;2023-04-24T08:22:40;47.83;;;22.05;;
75898;SDS011;64576;50.460;4.866;2023-04-24T08:25:07;32.28;;;16.17;;
75898;SDS011;64576;50.460;4.866;2023-04-24T08:27:33;41.35;;;19.27;;
75898;SDS011;64576;50.460;4.866;2023-04-24T08:29:58;38.90;;;15.73;;
75898;SDS011;64576;50.460;4.866;2023-04-24T08:32:25;45.80;;;19.50;;
75898;SDS011;64576;50.460;4.866;2023-04-24T08:34:53;36.30;;;15.50;;
75898;SDS011;64576;50.460;4.866;2023-04-24T08:37:21;44.67;;;20.48;;
75898;SDS011;64576;50.460;4.866;2023-04-24T08:39:47;37.40;;;18.98;;
75898;SDS011;64576;50.460;4.866;2023-04-24T08:42:12;33.00;;;17.75;;
75898;SDS011;64576;50.460;4.866;2023-04-24T08:44:38;29.75;;;18.00;;
75898;SDS011;64576;50.460;4.866;2023-04-24T08:47:03;42.60;;;20.70;;
75898;SDS011;64576;50.460;4.866;2023-04-24T08:49:30;33.72;;;21.23;;
75898;SDS011;64576;50.460;4.866;2023-04-24T08:51:56;25.65;;;14.70;;
75898;SDS011;64576;50.460;4.866;2023-04-24T08:54:21;33.97;;;15.40;;
75898;SDS011;64576;50.460;4.866;2023-04-24T08:56:47;30.85;;;15.80;;
75898;SDS011;64576;50.460;4.866;2023-04-24T08:59:14;26.05;;;15.13;;
75898;SDS011;64576;50.460;4.866;2023-04-24T09:01:40;35.47;;;16.08;;
75898;SDS011;64576;50.460;4.866;2023-04-24T09:04:07;29.27;;;13.30;;
75898;SDS011;64576;50.460;4.866;2023-04-24T09:06:35;23.52;;;11.65;;
75898;SDS011;64576;50.460;4.866;2023-04-24T09:09:01;32.65;;;14.35;;
75898;SDS011;64576;50.460;4.866;2023-04-24T09:11:29;34.75;;;14.88;;
75898;SDS011;64576;50.460;4.866;2023-04-24T09:13:55;34.78;;;13.23;;
75898;SDS011;64576;50.460;4.866;2023-04-24T09:16:21;22.33;;;12.05;;
75898;SDS011;64576;50.460;4.866;2023-04-24T09:18:49;25.67;;;12.40;;
75898;SDS011;64576;50.460;4.866;2023-04-24T09:21:14;19.20;;;11.25;;
75898;SDS011;64576;50.460;4.866;2023-04-24T09:23:41;24.70;;;14.30;;
75898;SDS011;64576;50.460;4.866;2023-04-24T09:26:06;25.17;;;12.57;;
75898;SDS011;64576;50.460;4.866;2023-04-24T09:28:38;24.33;;;11.35;;
75898;SDS011;64576;50.460;4.866;2023-04-24T09:31:07;20.70;;;10.73;;
75898;SDS011;64576;50.460;4.866;2023-04-24T09:33:53;20.58;;;11.38;;
75898;SDS011;64576;50.460;4.866;2023-04-24T09:36:24;20.05;;;10.75;;
75898;SDS011;64576;50.460;4.866;2023-04-24T09:38:53;18.77;;;9.68;;
75898;SDS011;64576;50.460;4.866;2023-04-24T09:41:22;19.05;;;10.60;;
75898;SDS011;64576;50.460;4.866;2023-04-24T09:43:48;28.63;;;11.35;;
75898;SDS011;64576;50.460;4.866;2023-04-24T09:46:13;26.77;;;12.32;;
75898;SDS011;64576;50.460;4.866;2023-04-24T09:48:39;23.35;;;11.45;;
75898;SDS011;64576;50.460;4.866;2023-04-24T09:51:04;24.35;;;11.40;;
75898;SDS011;64576;50.460;4.866;2023-04-24T09:53:36;16.70;;;8.55;;
75898;SDS011;64576;50.460;4.866;2023-04-24T09:56:02;18.27;;;9.77;;
75898;SDS011;64576;50.460;4.866;2023-04-24T09:58:32;25.95;;;9.85;;
75898;SDS011;64576;50.460;4.866;2023-04-24T10:00:57;15.55;;;9.27;;
75898;SDS011;64576;50.460;4.866;2023-04-24T10:03:26;19.48;;;7.82;;
75898;SDS011;64576;50.460;4.866;2023-04-24T10:05:57;15.10;;;7.32;;
75898;SDS011;64576;50.460;4.866;2023-04-24T10:08:24;20.08;;;7.93;;
75898;SDS011;64576;50.460;4.866;2023-04-24T10:10:50;19.73;;;8.15;;
75898;SDS011;64576;50.460;4.866;2023-04-24T10:13:15;15.82;;;8.63;;
75898;SDS011;64576;50.460;4.866;2023-04-24T10:15:41;22.23;;;9.23;;
75898;SDS011;64576;50.460;4.866;2023-04-24T10:18:07;19.92;;;10.02;;
75898;SDS011;64576;50.460;4.866;2023-04-24T10:20:34;20.15;;;10.25;;
75898;SDS011;64576;50.460;4.866;2023-04-24T10:23:01;16.35;;;8.75;;
75898;SDS011;64576;50.460;4.866;2023-04-24T10:25:28;20.90;;;9.45;;
75898;SDS011;64576;50.460;4.866;2023-04-24T10:27:56;26.08;;;13.60;;
75898;SDS011;64576;50.460;4.866;2023-04-24T10:30:24;24.70;;;12.38;;
75898;SDS011;64576;50.460;4.866;2023-04-24T10:32:51;27.77;;;12.55;;
75898;SDS011;64576;50.460;4.866;2023-04-24T10:35:17;29.52;;;14.52;;
75898;SDS011;64576;50.460;4.866;2023-04-24T10:37:48;27.02;;;12.98;;
75898;SDS011;64576;50.460;4.866;2023-04-24T10:40:19;26.77;;;12.50;;
75898;SDS011;64576;50.460;4.866;2023-04-24T10:42:51;19.15;;;10.77;;
75898;SDS011;64576;50.460;4.866;2023-04-24T10:45:20;21.63;;;10.52;;
75898;SDS011;64576;50.460;4.866;2023-04-24T10:50:18;21.10;;;10.65;;
75898;SDS011;64576;50.460;4.866;2023-04-24T10:52:44;20.75;;;9.77;;
75898;SDS011;64576;50.460;4.866;2023-04-24T10:55:15;20.33;;;11.32;;
75898;SDS011;64576;50.460;4.866;2023-04-24T10:58:00;22.42;;;11.52;;
75898;SDS011;64576;50.460;4.866;2023-04-24T11:00:29;22.92;;;10.52;;
75898;SDS011;64576;50.460;4.866;2023-04-24T11:02:54;18.77;;;11.35;;
75898;SDS011;64576;50.460;4.866;2023-04-24T11:05:21;25.38;;;11.35;;
75898;SDS011;64576;50.460;4.866;2023-04-24T11:10:44;20.88;;;12.35;;
75898;SDS011;64576;50.460;4.866;2023-04-24T11:13:10;17.77;;;8.77;;
75898;SDS011;64576;50.460;4.866;2023-04-24T11:15:40;23.65;;;9.45;;
75898;SDS011;64576;50.460;4.866;2023-04-24T11:18:07;29.85;;;10.75;;
75898;SDS011;64576;50.460;4.866;2023-04-24T11:20:41;21.20;;;10.32;;
75898;SDS011;64576;50.460;4.866;2023-04-24T11:23:07;23.83;;;11.32;;
75898;SDS011;64576;50.460;4.866;2023-04-24T11:25:33;29.27;;;12.60;;
75898;SDS011;64576;50.460;4.866;2023-04-24T11:28:04;23.88;;;13.35;;
75898;SDS011;64576;50.460;4.866;2023-04-24T11:30:31;33.90;;;15.27;;
75898;SDS011;64576;50.460;4.866;2023-04-24T11:33:02;28.52;;;13.27;;
75898;SDS011;64576;50.460;4.866;2023-04-24T11:35:29;33.58;;;14.32;;
75898;SDS011;64576;50.460;4.866;2023-04-24T11:37:55;31.02;;;14.18;;
75898;SDS011;64576;50.460;4.866;2023-04-24T11:40:22;25.45;;;13.10;;
75898;SDS011;64576;50.460;4.866;2023-04-24T11:42:48;27.83;;;12.95;;
75898;SDS011;64576;50.460;4.866;2023-04-24T11:47:50;32.38;;;12.88;;
75898;SDS011;64576;50.460;4.866;2023-04-24T11:50:17;30.48;;;14.00;;
75898;SDS011;64576;50.460;4.866;2023-04-24T11:52:44;30.50;;;14.48;;
75898;SDS011;64576;50.460;4.866;2023-04-24T11:57:42;29.70;;;12.85;;
75898;SDS011;64576;50.460;4.866;2023-04-24T12:00:14;25.27;;;15.15;;
75898;SDS011;64576;50.460;4.866;2023-04-24T12:02:41;25.35;;;12.65;;
75898;SDS011;64576;50.460;4.866;2023-04-24T12:05:06;24.25;;;12.45;;
75898;SDS011;64576;50.460;4.866;2023-04-24T12:07:32;26.42;;;12.20;;
75898;SDS011;64576;50.460;4.866;2023-04-24T12:10:07;25.08;;;13.98;;
75898;SDS011;64576;50.460;4.866;2023-04-24T12:12:34;30.00;;;12.98;;
75898;SDS011;64576;50.460;4.866;2023-04-24T12:14:59;37.80;;;15.57;;
75898;SDS011;64576;50.460;4.866;2023-04-24T12:17:27;31.40;;;13.27;;
75898;SDS011;64576;50.460;4.866;2023-04-24T12:19:57;25.58;;;13.02;;
75898;SDS011;64576;50.460;4.866;2023-04-24T12:22:24;28.38;;;14.73;;
75898;SDS011;64576;50.460;4.866;2023-04-24T12:24:56;27.42;;;13.00;;
75898;SDS011;64576;50.460;4.866;2023-04-24T12:27:31;26.55;;;12.93;;
75898;SDS011;64576;50.460;4.866;2023-04-24T12:30:02;26.92;;;13.25;;
75898;SDS011;64576;50.460;4.866;2023-04-24T12:32:30;18.95;;;9.75;;
75898;SDS011;64576;50.460;4.866;2023-04-24T12:34:55;22.38;;;10.93;;
75898;SDS011;64576;50.460;4.866;2023-04-24T12:37:24;24.20;;;12.60;;
75898;SDS011;64576;50.460;4.866;2023-04-24T12:40:07;23.15;;;10.20;;
75898;SDS011;64576;50.460;4.866;2023-04-24T12:42:34;21.27;;;10.80;;
75898;SDS011;64576;50.460;4.866;2023-04-24T12:45:02;22.85;;;11.43;;
75898;SDS011;64576;50.460;4.866;2023-04-24T12:47:30;21.85;;;10.38;;
75898;SDS011;64576;50.460;4.866;2023-04-24T12:49:56;22.92;;;11.00;;
75898;SDS011;64576;50.460;4.866;2023-04-24T12:52:30;22.60;;;10.70;;
75898;SDS011;64576;50.460;4.866;2023-04-24T12:54:56;20.13;;;11.18;;
75898;SDS011;64576;50.460;4.866;2023-04-24T12:57:24;21.88;;;11.02;;
75898;SDS011;64576;50.460;4.866;2023-04-24T12:59:50;24.60;;;12.25;;
75898;SDS011;64576;50.460;4.866;2023-04-24T13:02:17;31.63;;;13.55;;
75898;SDS011;64576;50.460;4.866;2023-04-24T13:04:46;22.40;;;12.50;;
75898;SDS011;64576;50.460;4.866;2023-04-24T13:07:12;24.80;;;12.43;;
75898;SDS011;64576;50.460;4.866;2023-04-24T13:09:41;22.17;;;11.68;;
75898;SDS011;64576;50.460;4.866;2023-04-24T13:12:08;23.45;;;13.02;;
75898;SDS011;64576;50.460;4.866;2023-04-24T13:14:34;25.30;;;12.50;;
75898;SDS011;64576;50.460;4.866;2023-04-24T13:17:00;25.17;;;12.93;;
75898;SDS011;64576;50.460;4.866;2023-04-24T13:19:25;29.50;;;12.73;;
75898;SDS011;64576;50.460;4.866;2023-04-24T13:21:52;32.65;;;14.40;;
75898;SDS011;64576;50.460;4.866;2023-04-24T13:24:20;29.40;;;12.10;;
75898;SDS011;64576;50.460;4.866;2023-04-24T13:26:45;36.90;;;12.82;;
75898;SDS011;64576;50.460;4.866;2023-04-24T13:29:11;26.60;;;13.50;;
75898;SDS011;64576;50.460;4.866;2023-04-24T13:31:36;28.02;;;12.57;;
75898;SDS011;64576;50.460;4.866;2023-04-24T13:34:02;24.88;;;14.18;;
75898;SDS011;64576;50.460;4.866;2023-04-24T13:36:28;32.25;;;16.00;;
75898;SDS011;64576;50.460;4.866;2023-04-24T13:38:53;27.70;;;13.18;;
75898;SDS011;64576;50.460;4.866;2023-04-24T13:41:19;33.28;;;15.23;;
75898;SDS011;64576;50.460;4.866;2023-04-24T13:43:44;25.98;;;11.40;;
75898;SDS011;64576;50.460;4.866;2023-04-24T13:46:10;30.40;;;14.82;;
75898;SDS011;64576;50.460;4.866;2023-04-24T13:48:35;28.48;;;12.25;;
75898;SDS011;64576;50.460;4.866;2023-04-24T13:51:01;28.95;;;12.57;;
75898;SDS011;64576;50.460;4.866;2023-04-24T13:53:26;30.63;;;14.32;;
75898;SDS011;64576;50.460;4.866;2023-04-24T13:55:51;27.38;;;12.90;;
75898;SDS011;64576;50.460;4.866;2023-04-24T13:58:17;26.70;;;10.93;;
75898;SDS011;64576;50.460;4.866;2023-04-24T14:00:42;26.05;;;11.07;;
75898;SDS011;64576;50.460;4.866;2023-04-24T14:03:08;22.45;;;10.05;;
75898;SDS011;64576;50.460;4.866;2023-04-24T14:05:33;25.48;;;11.80;;
75898;SDS011;64576;50.460;4.866;2023-04-24T14:07:58;29.23;;;10.40;;
75898;SDS011;64576;50.460;4.866;2023-04-24T14:10:24;27.77;;;10.90;;
75898;SDS011;64576;50.460;4.866;2023-04-24T14:12:50;23.95;;;10.60;;
75898;SDS011;64576;50.460;4.866;2023-04-24T14:15:16;26.33;;;11.18;;
75898;SDS011;64576;50.460;4.866;2023-04-24T14:17:42;21.88;;;9.90;;
75898;SDS011;64576;50.460;4.866;2023-04-24T14:20:07;22.60;;;10.23;;
75898;SDS011;64576;50.460;4.866;2023-04-24T14:22:34;30.38;;;11.55;;
75898;SDS011;64576;50.460;4.866;2023-04-24T14:24:59;28.90;;;12.93;;
75898;SDS011;64576;50.460;4.866;2023-04-24T14:27:24;35.90;;;15.32;;
75898;SDS011;64576;50.460;4.866;2023-04-24T14:29:51;28.08;;;12.45;;